Terminal Aerodrome Forecast
Issued by NWS

Home | Current Version | Previous Version | Text Only | Print | Product List | Glossary On
Versions: 1 2 3 4 5 6 7 8 9 10 11 12 13 14
000
FTUS44 KTSA 161700
TAFRVS
TAF
KRVS 161737Z 1618/1718 02004KT P6SM OVC015
     FM162000 05004KT P6SM BKN025
     FM162200 08004KT P6SM SCT035
     FM170000 00000KT P6SM SCT050
     FM170900 00000KT 4SM BR SCT015
     FM171500 20006KT P6SM SCT050=

USA.gov is the U.S. government's official web portal to all federal, state and local government web resources and services.